createdAt,value
2023-03-04T00:03:58.749Z,100202.28
2023-03-04T00:09:02.160Z,100210.16
2023-03-04T00:14:05.256Z,100201.06
2023-03-04T00:19:08.327Z,100198.88
2023-03-04T00:24:11.323Z,100196.06
2023-03-04T00:29:14.356Z,100194.59
2023-03-04T00:34:17.313Z,100193.25
2023-03-04T00:39:20.396Z,100200.47
2023-03-04T00:44:23.847Z,100194.38
2023-03-04T00:49:26.856Z,100193.97
2023-03-04T00:54:29.924Z,100183.91
2023-03-04T00:59:33.232Z,100178.47
2023-03-04T01:04:37.029Z,100172.38
2023-03-04T01:09:40.112Z,100165.47
2023-03-04T01:14:43.289Z,100175.13
2023-03-04T01:19:46.322Z,100174.63
2023-03-04T01:24:49.256Z,100163.69
2023-03-04T01:29:52.498Z,100162.25
2023-03-04T01:34:55.497Z,100166.19
2023-03-04T01:39:58.532Z,100150.75
2023-03-04T01:45:02.417Z,100155.31
2023-03-04T01:50:14.173Z,100153.53
2023-03-04T01:55:20.638Z,100141.25
2023-03-04T02:00:35.234Z,100147.28
2023-03-04T02:05:43.987Z,100133.03
2023-03-04T02:10:48.129Z,100137.03
2023-03-04T02:15:51.256Z,100134.50
2023-03-04T02:21:12.917Z,100130.41
2023-03-04T02:26:26.038Z,100131.78
2023-03-04T02:31:41.815Z,100124.88
2023-03-04T02:36:47.368Z,100115.72
2023-03-04T02:41:54.581Z,100104.94
2023-03-04T02:46:59.160Z,100099.72
2023-03-04T02:52:13.229Z,100105.41
2023-03-04T02:57:16.392Z,100104.19
2023-03-04T03:02:19.321Z,100092.22
2023-03-04T03:07:23.368Z,100086.88
2023-03-04T03:12:26.567Z,100083.66
2023-03-04T03:17:29.650Z,100084.53
2023-03-04T03:22:32.604Z,100083.25
2023-03-04T03:27:35.924Z,100076.00
2023-03-04T03:32:39.678Z,100069.13
2023-03-04T03:37:42.516Z,100064.75
2023-03-04T03:42:45.293Z,100063.63
2023-03-04T03:47:48.244Z,100065.66
2023-03-04T03:52:51.221Z,100068.63
2023-03-04T03:57:54.245Z,100068.75
2023-03-04T04:03:00.098Z,100051.44
2023-03-04T04:08:03.179Z,100049.81
2023-03-04T04:13:06.209Z,100045.63
2023-03-04T04:18:09.865Z,100051.31
2023-03-04T04:23:12.729Z,100060.72
2023-03-04T04:28:15.805Z,100047.78
2023-03-04T04:33:18.974Z,100041.94
2023-03-04T04:38:21.979Z,100040.91
2023-03-04T04:43:25.892Z,100039.84
2023-03-04T04:48:29.461Z,100042.81
2023-03-04T04:53:32.587Z,100038.00
2023-03-04T04:58:36.809Z,100038.72
2023-03-04T05:03:40.869Z,100046.84
2023-03-04T05:08:43.726Z,100047.28
2023-03-04T05:13:48.382Z,100038.41
2023-03-04T05:18:51.520Z,100049.44
2023-03-04T05:23:54.692Z,100051.63
2023-03-04T05:28:57.945Z,100048.84
2023-03-04T05:34:01.002Z,100046.75
2023-03-04T05:39:04.069Z,100046.31
2023-03-04T05:44:07.396Z,100036.75
2023-03-04T05:49:10.399Z,100044.75
2023-03-04T05:54:13.403Z,100050.06
2023-03-04T05:59:20.600Z,100048.78
2023-03-04T06:04:23.705Z,100066.50
2023-03-04T06:09:29.842Z,100067.44
2023-03-04T06:14:33.167Z,100065.72
2023-03-04T06:19:38.065Z,100068.81
2023-03-04T06:24:41.070Z,100073.47
2023-03-04T06:29:44.193Z,100066.44
2023-03-04T06:34:47.316Z,100072.03
2023-03-04T06:39:50.651Z,100077.19
2023-03-04T06:44:53.687Z,100080.84
2023-03-04T06:49:57.322Z,100072.09
2023-03-04T06:55:00.937Z,100068.16
2023-03-04T07:00:05.870Z,100078.06
2023-03-04T07:05:11.676Z,100073.94
2023-03-04T07:10:14.692Z,100073.56
2023-03-04T07:15:17.895Z,100068.13
2023-03-04T07:20:21.414Z,100069.06
2023-03-04T07:25:24.358Z,100065.00
2023-03-04T07:30:30.630Z,100061.03
2023-03-04T07:35:37.083Z,100054.00
2023-03-04T07:40:42.807Z,100052.28
2023-03-04T07:45:46.126Z,100059.59
2023-03-04T07:50:49.154Z,100055.66
2023-03-04T07:55:52.239Z,100053.47
2023-03-04T08:00:55.294Z,100045.16
2023-03-04T08:05:58.227Z,100047.78
2023-03-04T08:11:10.953Z,100041.41
2023-03-04T08:16:20.333Z,100038.28
2023-03-04T08:21:26.448Z,100041.00
2023-03-04T08:26:40.670Z,100033.88
2023-03-04T08:31:48.805Z,100034.13
2023-03-04T08:36:51.925Z,100035.78
2023-03-04T08:41:55.092Z,100033.78
2023-03-04T08:46:58.013Z,100030.81
2023-03-04T08:52:01.885Z,100031.34
2023-03-04T08:57:07.915Z,100013.38
2023-03-04T09:02:11.359Z,100005.81
2023-03-04T09:07:16.858Z,99996.06
2023-03-04T09:12:19.866Z,99989.63
2023-03-04T09:17:22.823Z,99989.28
2023-03-04T09:22:25.984Z,99987.75
2023-03-04T09:27:29.070Z,99983.28
2023-03-04T09:32:32.653Z,99984.03
2023-03-04T09:37:36.500Z,99966.63
2023-03-04T09:42:47.895Z,99979.06
2023-03-04T09:47:54.354Z,99963.22
2023-03-04T09:53:08.000Z,99964.09
2023-03-04T09:59:07.619Z,99971.47
2023-03-04T10:04:14.207Z,99967.34
2023-03-04T10:09:40.360Z,99963.59
2023-03-04T10:14:51.292Z,99959.03
2023-03-04T10:20:19.370Z,99953.66
2023-03-04T10:25:29.794Z,99952.16
2023-03-04T10:31:11.962Z,99946.78
2023-03-04T10:36:30.368Z,99939.34
2023-03-04T10:41:33.731Z,99929.81
2023-03-04T10:46:42.707Z,99923.09
2023-03-04T10:52:29.793Z,99910.16
2023-03-04T10:57:41.516Z,99907.28
2023-03-04T11:02:47.223Z,99902.53
2023-03-04T11:08:00.860Z,99899.88
2023-03-04T11:13:26.517Z,99889.81
2023-03-04T11:18:52.485Z,99884.09
2023-03-04T11:24:27.245Z,99881.16
2023-03-04T11:29:58.220Z,99874.16
2023-03-04T11:35:17.486Z,99872.63
2023-03-04T11:40:44.374Z,99865.34
2023-03-04T11:46:21.689Z,99852.81
2023-03-04T11:51:27.693Z,99849.09
2023-03-04T12:13:34.618Z,99826.03
2023-03-04T12:54:26.285Z,99784.28
2023-03-04T12:59:37.945Z,99763.53
2023-03-04T13:05:07.883Z,99757.50
2023-03-04T13:10:18.110Z,99746.19
2023-03-04T13:15:34.977Z,99736.44
2023-03-04T13:20:40.968Z,99719.41
2023-03-04T13:25:56.644Z,99716.59
2023-03-04T13:31:20.884Z,99697.56
2023-03-04T13:36:31.936Z,99693.88
2023-03-04T13:41:48.337Z,99698.47
2023-03-04T13:46:51.969Z,99687.09
2023-03-04T13:51:55.208Z,99692.25
2023-03-04T13:57:01.447Z,99691.03
2023-03-04T14:02:34.564Z,99691.63
2023-03-04T14:07:37.982Z,99694.88
2023-03-04T14:12:45.531Z,99684.19
2023-03-04T14:17:58.922Z,99693.03
2023-03-04T14:23:25.549Z,99673.81
2023-03-04T14:28:28.578Z,99676.16
2023-03-04T14:33:31.667Z,99669.91
2023-03-04T14:38:38.234Z,99672.78
2023-03-04T14:43:58.641Z,99670.97
2023-03-04T14:49:02.471Z,99665.53
2023-03-04T14:54:06.722Z,99661.00
2023-03-04T14:59:13.673Z,99669.00
2023-03-04T15:04:20.579Z,99668.91
2023-03-04T15:09:27.220Z,99667.16
2023-03-04T15:14:52.562Z,99671.50
2023-03-04T15:20:11.257Z,99669.09
2023-03-04T15:25:15.787Z,99675.78
2023-03-04T15:30:30.419Z,99667.38
2023-03-04T15:35:34.028Z,99667.91
2023-03-04T15:40:45.758Z,99669.53
2023-03-04T15:45:50.767Z,99677.97
2023-03-04T15:51:01.363Z,99668.84
2023-03-04T15:56:22.116Z,99670.28
2023-03-04T16:01:25.637Z,99660.97
2023-03-04T16:06:32.271Z,99663.72
2023-03-04T16:11:44.280Z,99669.09
2023-03-04T16:16:48.096Z,99676.94
2023-03-04T16:21:51.175Z,99660.34
2023-03-04T16:26:53.980Z,99657.31
2023-03-04T16:31:56.977Z,99669.94
2023-03-04T16:37:05.590Z,99670.44
2023-03-04T16:42:22.747Z,99668.03
2023-03-04T16:47:25.987Z,99659.91
2023-03-04T16:52:33.504Z,99664.00
2023-03-04T16:57:36.426Z,99665.56
2023-03-04T17:02:39.582Z,99675.75
2023-03-04T17:07:43.059Z,99682.47
2023-03-04T17:12:46.021Z,99684.50
2023-03-04T17:17:49.115Z,99701.34
2023-03-04T17:22:53.651Z,99697.09
2023-03-04T17:27:56.592Z,99708.00
2023-03-04T17:32:59.725Z,99703.50
2023-03-04T17:38:02.668Z,99711.28
2023-03-04T17:43:11.377Z,99716.47
2023-03-04T17:48:17.482Z,99731.78
2023-03-04T17:53:21.173Z,99732.22
2023-03-04T17:58:24.717Z,99741.28
2023-03-04T18:03:27.655Z,99749.66
2023-03-04T18:08:30.909Z,99748.72
2023-03-04T18:13:34.005Z,99763.25
2023-03-04T18:18:37.010Z,99771.88
2023-03-04T18:23:40.198Z,99776.13
2023-03-04T18:28:42.984Z,99786.75
2023-03-04T18:33:47.121Z,99788.50
2023-03-04T18:38:50.222Z,99792.59
2023-03-04T18:43:53.330Z,99799.88
2023-03-04T18:49:03.171Z,99805.22
2023-03-04T18:54:07.002Z,99805.31
2023-03-04T18:59:46.380Z,99803.56
2023-03-04T19:04:50.711Z,99795.09
2023-03-04T19:09:54.862Z,99808.03
2023-03-04T19:14:58.895Z,99811.16
2023-03-04T19:20:07.930Z,99811.41
2023-03-04T19:25:12.078Z,99808.31
2023-03-04T19:30:15.009Z,99805.50
2023-03-04T19:35:18.363Z,99811.50
2023-03-04T19:40:21.517Z,99807.03
2023-03-04T19:45:25.515Z,99807.75
2023-03-04T19:50:28.312Z,99823.44
2023-03-04T19:55:36.273Z,99832.13
2023-03-04T20:00:39.288Z,99828.09
2023-03-04T20:05:42.306Z,99826.16
2023-03-04T20:10:45.285Z,99828.19
2023-03-04T20:15:48.439Z,99838.66
2023-03-04T20:20:51.956Z,99835.94
2023-03-04T20:25:56.143Z,99838.84
2023-03-04T20:31:26.375Z,99832.56
2023-03-04T20:36:31.135Z,99830.56
2023-03-04T20:41:34.854Z,99848.41
2023-03-04T20:46:43.194Z,99857.47
2023-03-04T20:51:46.280Z,99859.38
2023-03-04T20:56:49.770Z,99854.25
2023-03-04T21:01:52.869Z,99848.75
2023-03-04T21:06:55.834Z,99853.19
2023-03-04T21:12:00.925Z,99864.72
2023-03-04T21:17:05.729Z,99870.66
2023-03-04T21:22:15.554Z,99868.13
2023-03-04T21:27:19.758Z,99870.44
2023-03-04T21:32:27.106Z,99881.78
2023-03-04T21:37:30.218Z,99873.06
2023-03-04T21:42:33.277Z,99869.75
2023-03-04T21:47:36.486Z,99870.91
2023-03-04T21:52:39.486Z,99860.34
2023-03-04T21:57:42.562Z,99864.06
2023-03-04T22:02:45.402Z,99858.38
2023-03-04T22:07:48.337Z,99860.78
2023-03-04T22:12:51.369Z,99854.38
2023-03-04T22:17:54.366Z,99838.19
2023-03-04T22:22:57.383Z,99857.84
2023-03-04T22:28:00.627Z,99855.78
2023-03-04T22:33:04.384Z,99850.81
2023-03-04T22:38:07.526Z,99854.13
2023-03-04T22:43:10.923Z,99867.81
2023-03-04T22:48:14.600Z,99868.16
2023-03-04T22:53:17.633Z,99873.53
2023-03-04T22:58:20.411Z,99870.09
2023-03-04T23:03:23.334Z,99882.09
2023-03-04T23:08:26.268Z,99876.84
2023-03-04T23:13:29.746Z,99874.38
2023-03-04T23:18:32.866Z,99883.41
2023-03-04T23:23:36.652Z,99875.53
2023-03-04T23:28:39.851Z,99889.72
2023-03-04T23:33:47.870Z,99892.34
2023-03-04T23:38:51.033Z,99898.63
2023-03-04T23:43:55.931Z,99900.06
2023-03-04T23:48:58.988Z,99909.59
2023-03-04T23:54:02.028Z,99901.97
2023-03-04T23:59:07.887Z,99900.81
